createdAt,value
2023-05-18T00:06:23.277Z,8.95
2023-05-18T00:17:17.241Z,8.74
2023-05-18T01:19:32.620Z,8.48
2023-05-18T01:29:59.174Z,8.56
2023-05-18T01:40:33.307Z,8.77
2023-05-18T01:51:05.511Z,8.73
2023-05-18T02:14:52.971Z,8.49
2023-05-18T02:25:18.978Z,8.26
2023-05-18T02:35:33.856Z,8.20
2023-05-18T02:46:04.759Z,8.05
2023-05-18T03:08:00.626Z,8.38
2023-05-18T03:19:05.149Z,8.50
2023-05-18T03:29:42.387Z,8.60
2023-05-18T03:40:21.101Z,9.05
2023-05-18T03:50:36.226Z,9.38
2023-05-18T04:00:59.633Z,9.77
2023-05-18T04:12:02.838Z,10.81
2023-05-18T04:22:31.610Z,14.03
2023-05-18T04:33:00.565Z,17.65
2023-05-18T04:43:42.223Z,18.26
2023-05-18T04:54:11.371Z,18.95
2023-05-18T05:26:50.962Z,21.11
2023-05-18T05:49:12.732Z,15.39
2023-05-18T06:11:38.822Z,14.15
2023-05-18T06:22:33.048Z,13.61
2023-05-18T06:32:58.143Z,12.94
2023-05-18T06:43:01.883Z,12.84
2023-05-18T06:53:18.982Z,12.75
2023-05-18T07:03:26.137Z,13.00
2023-05-18T07:13:31.496Z,13.20
2023-05-18T07:23:37.649Z,13.39
2023-05-18T07:33:42.559Z,13.89
2023-05-18T07:43:46.149Z,14.12
2023-05-18T07:53:52.338Z,14.67
2023-05-18T08:03:57.220Z,14.85
2023-05-18T08:14:01.199Z,15.40
2023-05-18T08:24:08.483Z,15.25
2023-05-18T08:34:12.731Z,15.30
2023-05-18T08:44:21.826Z,15.71
2023-05-18T08:54:26.594Z,16.15
2023-05-18T09:04:37.749Z,15.90
2023-05-18T09:14:43.885Z,15.74
2023-05-18T09:24:49.128Z,16.09
2023-05-18T09:34:55.679Z,16.11
2023-05-18T09:44:59.312Z,16.06
2023-05-18T09:55:06.558Z,16.49
2023-05-18T10:05:23.224Z,16.60
2023-05-18T10:15:28.538Z,16.83
2023-05-18T10:25:33.648Z,16.61
2023-05-18T10:35:40.086Z,16.52
2023-05-18T10:45:49.838Z,16.85
2023-05-18T10:55:54.812Z,16.99
2023-05-18T11:06:05.263Z,17.50
2023-05-18T11:16:10.552Z,17.34
2023-05-18T11:26:16.656Z,18.35
2023-05-18T11:36:26.675Z,18.34
2023-05-18T11:46:30.309Z,18.23
2023-05-18T11:56:34.191Z,18.15
2023-05-18T12:06:40.153Z,17.91
2023-05-18T12:16:46.573Z,18.17
2023-05-18T12:26:51.467Z,18.57
2023-05-18T12:36:56.258Z,18.54
2023-05-18T12:47:02.402Z,18.70
2023-05-18T12:57:10.234Z,18.65
2023-05-18T13:07:15.890Z,18.29
2023-05-18T13:17:23.358Z,18.65
2023-05-18T13:27:29.984Z,18.26
2023-05-18T13:37:33.617Z,18.20
2023-05-18T13:47:37.288Z,18.78
2023-05-18T13:58:07.756Z,17.91
2023-05-18T14:19:54.305Z,18.53
2023-05-18T14:29:59.562Z,18.81
2023-05-18T14:40:04.756Z,18.90
2023-05-18T14:50:08.850Z,18.40
2023-05-18T15:00:15.344Z,18.37
2023-05-18T15:10:21.084Z,18.34
2023-05-18T15:20:26.502Z,18.55
2023-05-18T15:30:30.397Z,18.22
2023-05-18T15:40:34.294Z,18.04
2023-05-18T15:50:38.080Z,18.13
2023-05-18T16:00:41.644Z,17.80
2023-05-18T16:10:46.553Z,17.61
2023-05-18T16:20:50.088Z,17.32
2023-05-18T16:30:55.437Z,16.77
2023-05-18T16:40:58.977Z,16.22
2023-05-18T16:51:08.630Z,16.06
2023-05-18T17:01:23.529Z,15.78
2023-05-18T17:11:30.789Z,15.51
2023-05-18T17:21:34.478Z,15.35
2023-05-18T17:31:39.118Z,15.27
2023-05-18T17:53:56.900Z,14.75
2023-05-18T20:23:34.766Z,11.33
2023-05-18T20:45:15.432Z,11.13
2023-05-18T20:56:16.172Z,11.11
2023-05-18T21:07:25.809Z,11.00
2023-05-18T22:31:40.608Z,9.73
2023-05-18T22:41:53.925Z,9.90
2023-05-18T23:45:18.902Z,9.59
2023-05-18T23:55:54.652Z,9.48
